الصفحة الرئيسية
METAR-TAF:

METAR-TAF

مطار :

مطار شيريميتييفو الدولي

موسكو-شيريميتييفو, روسيا

دائرة عرض: 55-58N, خط طول: 037-25E, ارتفاع: 190 متر

مراقبة الطقس الحالي

تاريخ ووقت الإصدار 27 دقيقة قبل الساعة 02:30UTC
ريح 6 عقدة من الشمال/الشمال الغربي, الاتجاه يتراوح بين الغرب/الشمال الغربي و الشمال
درجة الحرارة 20°درجة مئوية
الرطوبة 94%
ضغط 1016 hPa
الرؤية 10 كم أو أكثر
غيوم متفرقة على ارتفاع 300 قدم

METAR: UUEE 160230Z 34003MPS 300V360 9999 SCT003 20/19 Q1016 R06R/CLRD62 R06C/CLRD62 NOSIG

زمن: 05:57 (02:57 UTC)

توقعات

تاريخ ووقت الإصدار 59 دقيقة قبل الساعة 01:58UTC
التوقعات صالحة من16 الساعة 03 UTC إلى 17 الساعة 03 UTC
ريح 6 عقدة من الشمال تتزايد حتى 16 عقدة
الرؤية 10 كم أو أكثر
غيوم متفرقة على ارتفاع 3000 قدم
مؤقت
من 16 الساعة 06 UTC إلى 16 الساعة 18 UTC
ريح 16 عقدة من الشمال الشرقي تتزايد حتى 29 عقدة
غيوم مفككة على ارتفاع 2500 قدم, مزنة ركامية.
عاصفة رعدية, مطر خفيف,

TAF: UUEE 160158Z 1603/1703 36003G08MPS 9999 SCT030 TX29/1612Z TN20/1701Z TEMPO 1606/1618 04008G15MPS -TSRA BKN025CB

أرصاد الطقس والتوقعات من أكثر من 4000 مطار (تقارير الطقس للمطار METAR والتنبؤ بالطقس بالمطارTAF).

المحطات المتاحة هي النقط الصفراء والحمراء على الخريطة.

حرك المؤشر فوق النقطة لمعرفة اسم المحطة.

ثم انقر لمعرفة أرصاد وتوقعات الطقس.

لتغيير الخارطة: اضغط على الأزرار الخضراء مع رمز الصليب الأسود للتكبير. على الزر الأخضر مع شرطة للتصغير، أو على الأسهم الخضراء للخرائط المجاورة.


METAR-TAF: